Time;durP1;ratioP1;P1;durP2;ratioP2;P2;SDS_P1;SDS_P2;PMS_P1;PMS_P2;Temp;Humidity;BMP_temperature;BMP_pressure;BME280_temperature;BME280_humidity;BME280_pressure;Samples;Min_cycle;Max_cycle;Signal;HPM_P1;HPM_P2
2022/12/12 00:00:42;;;;;;;0.90;0.60;;;1.60;1.00;;;;;;6068817;23;20411;-78
2022/12/12 00:03:11;;;;;;;0.70;0.50;;;1.60;1.00;;;;;;6069262;23;20510;-77
2022/12/12 00:05:39;;;;;;;0.50;0.10;;;1.60;1.00;;;;;;6071449;23;20399;-77
2022/12/12 00:08:07;;;;;;;0.50;0.10;;;1.60;1.00;;;;;;6073331;23;20920;-77
2022/12/12 00:10:35;;;;;;;0.50;0.20;;;1.60;1.00;;;;;;6069510;23;20419;-77
2022/12/12 00:13:05;;;;;;;7.20;6.90;;;1.70;1.00;;;;;;6068955;23;20406;-77
2022/12/12 00:15:33;;;;;;;0.50;0.10;;;1.70;1.00;;;;;;6069202;23;20715;-77
2022/12/12 00:18:01;;;;;;;0.50;0.10;;;1.70;1.00;;;;;;6068273;23;20451;-77
2022/12/12 00:20:29;;;;;;;0.50;0.20;;;1.70;1.00;;;;;;6068658;23;20448;-77
2022/12/12 00:22:56;;;;;;;3.13;3.03;;;1.70;1.00;;;;;;6070652;23;20407;-77
2022/12/12 00:25:24;;;;;;;1.00;0.63;;;1.70;1.00;;;;;;6070851;23;20412;-77
2022/12/12 00:27:52;;;;;;;0.50;0.10;;;1.70;1.00;;;;;;6069290;23;20427;-77
2022/12/12 00:30:22;;;;;;;0.50;0.10;;;1.70;1.00;;;;;;6068836;23;20404;-77
2022/12/12 00:32:49;;;;;;;1.83;1.33;;;1.80;1.00;;;;;;6068099;23;20408;-78
2022/12/12 00:35:17;;;;;;;0.50;0.10;;;1.80;1.00;;;;;;6068845;23;20400;-77
2022/12/12 00:37:45;;;;;;;0.50;0.10;;;1.90;1.00;;;;;;6068876;23;20446;-77
2022/12/12 00:40:13;;;;;;;0.50;0.10;;;1.90;1.00;;;;;;6068658;23;20451;-78
2022/12/12 00:42:41;;;;;;;0.50;0.10;;;1.90;1.00;;;;;;6068327;23;20414;-77
2022/12/12 00:45:11;;;;;;;0.50;0.10;;;1.90;1.00;;;;;;6068468;23;20475;-77
2022/12/12 00:47:41;;;;;;;0.50;0.10;;;2.00;1.00;;;;;;6070987;23;20488;-77
2022/12/12 00:50:10;;;;;;;1.67;1.57;;;2.00;1.00;;;;;;6071457;23;20403;-77
2022/12/12 00:52:38;;;;;;;0.50;0.10;;;2.00;1.00;;;;;;6071702;23;20419;-77
2022/12/12 00:55:06;;;;;;;2.10;1.47;;;2.00;1.00;;;;;;6085103;23;20407;-77
2022/12/12 00:57:34;;;;;;;0.50;0.10;;;1.90;1.00;;;;;;6090158;23;20416;-77
2022/12/12 05:01:03;;;;;;;2.93;2.00;;;2.30;1.00;;;;;;5990610;23;20448;-81
2022/12/12 05:03:41;;;;;;;0.50;0.10;;;2.30;1.00;;;;;;6074816;23;20447;-80
2022/12/12 05:06:12;;;;;;;0.50;0.10;;;2.20;1.00;;;;;;6077539;23;20414;-80
2022/12/12 05:08:43;;;;;;;0.50;0.10;;;2.10;1.00;;;;;;6075309;23;20459;-78
2022/12/12 05:11:12;;;;;;;0.70;0.37;;;2.20;1.00;;;;;;6074735;23;20415;-79
2022/12/12 05:13:42;;;;;;;0.50;0.10;;;2.10;1.00;;;;;;6072732;23;20422;-80
2022/12/12 05:16:18;;;;;;;0.50;0.17;;;2.10;1.00;;;;;;6069192;23;20470;-76
2022/12/12 05:18:46;;;;;;;0.50;0.10;;;2.10;1.00;;;;;;6068232;23;20411;-77
2022/12/12 05:21:14;;;;;;;0.50;0.10;;;2.10;1.00;;;;;;6066260;23;20403;-77
2022/12/12 05:23:42;;;;;;;0.50;0.20;;;2.10;1.00;;;;;;6066304;23;20483;-77
2022/12/12 05:26:16;;;;;;;0.50;0.10;;;2.10;1.00;;;;;;6066625;23;20427;-76
2022/12/12 05:28:44;;;;;;;0.50;0.10;;;2.10;1.00;;;;;;6067463;23;20720;-76
2022/12/12 05:31:13;;;;;;;2.00;1.70;;;2.20;1.00;;;;;;6067219;23;20874;-77
2022/12/12 05:33:41;;;;;;;0.50;0.30;;;2.10;1.00;;;;;;6068175;23;20885;-76
2022/12/12 05:36:10;;;;;;;0.60;0.60;;;2.10;1.00;;;;;;6068353;23;20735;-76
2022/12/12 05:38:38;;;;;;;0.50;0.10;;;2.10;1.00;;;;;;6068424;23;20412;-76
2022/12/12 05:41:07;;;;;;;0.60;0.43;;;2.20;1.00;;;;;;6068686;23;20447;-76
2022/12/12 05:43:35;;;;;;;0.50;0.10;;;2.20;1.00;;;;;;6068247;23;20408;-77
2022/12/12 05:46:03;;;;;;;0.50;0.10;;;2.20;1.00;;;;;;6068242;23;20427;-76
2022/12/12 05:48:32;;;;;;;0.50;0.10;;;2.20;1.00;;;;;;6068482;23;20419;-76
2022/12/12 05:51:01;;;;;;;0.50;0.10;;;2.10;1.00;;;;;;6068291;23;20408;-76
2022/12/12 05:53:30;;;;;;;1.77;1.60;;;2.10;1.00;;;;;;6068317;23;20412;-76
2022/12/12 05:55:58;;;;;;;0.50;0.10;;;2.10;1.00;;;;;;6067586;23;20444;-76
2022/12/12 05:58:26;;;;;;;0.50;0.30;;;2.10;1.00;;;;;;6068784;23;20415;-77
2022/12/12 06:00:53;;;;;;;0.50;0.10;;;2.10;1.00;;;;;;6068955;23;20494;-77
2022/12/12 06:03:29;;;;;;;2.63;2.53;;;2.20;1.00;;;;;;6068684;23;20399;-76
2022/12/12 06:05:59;;;;;;;0.50;0.10;;;2.20;1.00;;;;;;6068812;23;20424;-78
2022/12/12 06:08:27;;;;;;;0.50;0.10;;;2.20;1.00;;;;;;6068109;23;20412;-76
2022/12/12 06:10:55;;;;;;;0.50;0.10;;;2.20;1.00;;;;;;6068064;23;20455;-78
2022/12/12 06:13:23;;;;;;;0.50;0.10;;;2.20;1.00;;;;;;6068192;23;20408;-75
2022/12/12 06:15:51;;;;;;;0.83;0.83;;;;;;;;;;6068687;23;20448;-77
2022/12/12 06:18:19;;;;;;;0.50;0.10;;;2.20;1.00;;;;;;6068582;23;20450;-78
2022/12/12 06:20:47;;;;;;;0.53;0.23;;;;;;;;;;6068447;23;20556;-76
2022/12/12 06:23:16;;;;;;;0.50;0.10;;;2.20;1.00;;;;;;6068291;23;20412;-78
2022/12/12 06:25:44;;;;;;;0.50;0.10;;;2.20;1.00;;;;;;6068536;23;20482;-77
2022/12/12 06:28:14;;;;;;;0.50;0.10;;;2.20;1.00;;;;;;6068198;23;20767;-77
2022/12/12 06:30:43;;;;;;;0.60;0.53;;;;;;;;;;6068099;23;20479;-77
2022/12/12 06:33:11;;;;;;;0.50;0.10;;;2.20;1.00;;;;;;6066879;23;20431;-77
2022/12/12 06:35:39;;;;;;;0.50;0.10;;;2.20;1.00;;;;;;6067733;23;20427;-77
2022/12/12 06:38:07;;;;;;;0.50;0.10;;;2.20;1.00;;;;;;6068074;23;20791;-77
2022/12/12 06:40:39;;;;;;;0.50;0.10;;;2.20;1.00;;;;;;6068344;23;20483;-77
2022/12/12 06:43:07;;;;;;;0.50;0.10;;;2.20;1.00;;;;;;6067310;23;20420;-76
2022/12/12 06:45:35;;;;;;;0.50;0.10;;;2.20;1.00;;;;;;6068733;23;20432;-77
2022/12/12 06:48:02;;;;;;;0.50;0.20;;;2.20;1.00;;;;;;6068168;23;20408;-77
2022/12/12 06:50:30;;;;;;;12.97;12.00;;;2.30;1.00;;;;;;6068056;23;20404;-77
2022/12/12 06:52:59;;;;;;;0.50;0.10;;;2.30;1.00;;;;;;6067497;23;20411;-77
2022/12/12 06:55:26;;;;;;;0.50;0.10;;;2.30;1.00;;;;;;6067242;23;20495;-77
2022/12/12 06:57:57;;;;;;;0.50;0.10;;;2.30;1.00;;;;;;6067616;23;20416;-77
2022/12/12 07:00:25;;;;;;;0.50;0.10;;;2.40;1.00;;;;;;6069085;23;20447;-77
2022/12/12 07:02:53;;;;;;;0.50;0.10;;;2.40;1.00;;;;;;6068404;23;20443;-76
2022/12/12 07:05:21;;;;;;;0.50;0.10;;;2.40;1.00;;;;;;6068758;23;20454;-77
2022/12/12 07:07:49;;;;;;;1.80;1.70;;;2.40;1.00;;;;;;6068878;23;20408;-77
2022/12/12 07:10:17;;;;;;;0.50;0.10;;;2.30;1.00;;;;;;6068981;23;20400;-76
2022/12/12 07:12:48;;;;;;;0.50;0.10;;;2.30;1.00;;;;;;6070443;23;20397;-77
2022/12/12 07:15:24;;;;;;;0.50;0.10;;;2.30;1.00;;;;;;6068535;23;20435;-77
2022/12/12 07:17:53;;;;;;;0.50;0.10;;;2.30;1.00;;;;;;6068673;23;20431;-77
2022/12/12 07:20:21;;;;;;;0.50;0.10;;;2.30;1.00;;;;;;6068400;23;20748;-76
2022/12/12 07:22:49;;;;;;;0.50;0.10;;;2.30;1.00;;;;;;6068784;23;20412;-77
2022/12/12 07:25:17;;;;;;;0.50;0.10;;;2.30;1.00;;;;;;6068802;23;20478;-77
2022/12/12 07:27:44;;;;;;;0.50;0.10;;;2.30;1.00;;;;;;6069075;23;20499;-77
2022/12/12 07:30:13;;;;;;;0.50;0.10;;;2.30;1.00;;;;;;6069849;23;20408;-78
2022/12/12 07:32:42;;;;;;;0.50;0.10;;;2.30;1.00;;;;;;6070515;23;20419;-76
2022/12/12 07:35:10;;;;;;;0.50;0.10;;;2.30;1.00;;;;;;6068718;23;20455;-77
2022/12/12 07:37:38;;;;;;;0.50;0.10;;;2.20;1.00;;;;;;6070883;23;20763;-78
2022/12/12 07:40:07;;;;;;;1.17;1.07;;;2.20;1.00;;;;;;6068735;23;20404;-77
2022/12/12 07:42:35;;;;;;;0.50;0.10;;;2.30;1.00;;;;;;6068480;23;20467;-77
2022/12/12 07:45:03;;;;;;;2.40;2.20;;;2.30;1.00;;;;;;6069070;23;20418;-77
2022/12/12 07:47:31;;;;;;;0.50;0.10;;;2.30;1.00;;;;;;6069229;23;20404;-78
2022/12/12 07:50:00;;;;;;;0.50;0.10;;;2.30;1.00;;;;;;6068527;23;20494;-78
2022/12/12 07:52:28;;;;;;;0.50;0.10;;;2.40;1.00;;;;;;6068520;23;20415;-77
2022/12/12 07:54:55;;;;;;;0.50;0.10;;;2.40;1.00;;;;;;6068672;23;20467;-77
2022/12/12 07:57:23;;;;;;;0.50;0.10;;;2.40;1.00;;;;;;6068597;23;20419;-78
2022/12/12 07:59:51;;;;;;;0.50;0.20;;;2.40;1.00;;;;;;6069902;23;20415;-78
2022/12/12 08:02:19;;;;;;;0.50;0.10;;;2.40;1.00;;;;;;6070057;23;20766;-77
2022/12/12 08:04:47;;;;;;;0.50;0.10;;;2.40;1.00;;;;;;6068724;23;20408;-79
2022/12/12 08:07:16;;;;;;;3.17;2.97;;;2.50;1.00;;;;;;6069639;23;20741;-78
2022/12/12 08:09:44;;;;;;;0.50;0.10;;;2.50;1.00;;;;;;6069970;23;20463;-78
2022/12/12 08:12:12;;;;;;;0.50;0.27;;;2.50;1.00;;;;;;6069930;23;20901;-77
2022/12/12 08:14:40;;;;;;;1.53;0.97;;;2.50;1.00;;;;;;6069538;23;20766;-78
2022/12/12 08:17:08;;;;;;;0.50;0.10;;;2.50;1.00;;;;;;6069665;23;20554;-77
2022/12/12 08:19:36;;;;;;;0.50;0.10;;;;;;;;;;6069373;23;20412;-76
2022/12/12 08:22:04;;;;;;;0.50;0.20;;;2.50;1.00;;;;;;6070128;23;20490;-78
2022/12/12 08:24:33;;;;;;;0.50;0.10;;;2.50;1.00;;;;;;6070135;23;20463;-78
2022/12/12 08:27:01;;;;;;;0.50;0.10;;;2.60;1.00;;;;;;6070316;23;20428;-78
2022/12/12 08:29:28;;;;;;;0.50;0.10;;;2.60;1.00;;;;;;6072004;23;20420;-79
2022/12/12 08:31:56;;;;;;;0.50;0.20;;;2.50;1.00;;;;;;6072280;23;20901;-78
2022/12/12 08:34:25;;;;;;;0.50;0.20;;;2.50;1.00;;;;;;6069398;23;20466;-77
2022/12/12 08:36:53;;;;;;;0.50;0.20;;;2.70;1.00;;;;;;6069451;23;20487;-77
2022/12/12 08:39:22;;;;;;;2.60;0.77;;;2.50;1.00;;;;;;6069852;23;20984;-77
2022/12/12 08:41:51;;;;;;;0.63;0.57;;;2.50;1.00;;;;;;6069897;23;20470;-77
2022/12/12 08:44:21;;;;;;;0.50;0.10;;;2.50;1.00;;;;;;6070371;23;20411;-77
2022/12/12 08:46:49;;;;;;;1.60;1.50;;;0.80;1.00;;;;;;6070655;23;20427;-77
2022/12/12 08:49:17;;;;;;;0.70;0.70;;;2.40;1.00;;;;;;6068484;23;20406;-77
2022/12/12 08:51:45;;;;;;;0.50;0.20;;;2.40;1.00;;;;;;6070268;23;20403;-76
2022/12/12 08:54:13;;;;;;;1.07;0.80;;;2.30;1.00;;;;;;6069127;23;20696;-77
2022/12/12 08:56:41;;;;;;;0.50;0.10;;;2.30;1.00;;;;;;6069080;23;21020;-77
2022/12/12 08:59:10;;;;;;;0.73;0.50;;;2.30;1.00;;;;;;6069550;23;20400;-77
2022/12/12 09:01:38;;;;;;;4.77;2.43;;;2.20;1.00;;;;;;6069289;23;20951;-77
2022/12/12 09:04:06;;;;;;;0.50;0.10;;;2.20;1.00;;;;;;6068894;23;20810;-77
2022/12/12 09:06:34;;;;;;;0.50;0.20;;;2.30;1.00;;;;;;6068776;23;20427;-77
2022/12/12 09:09:02;;;;;;;0.50;0.10;;;2.20;1.00;;;;;;6070926;23;20408;-76
2022/12/12 09:11:30;;;;;;;0.50;0.10;;;2.30;1.00;;;;;;6070830;23;20467;-77
2022/12/12 09:13:58;;;;;;;3.40;3.30;;;2.40;1.00;;;;;;6067989;23;20912;-78
2022/12/12 09:16:28;;;;;;;2.30;2.10;;;2.30;1.00;;;;;;6070695;23;20443;-76
2022/12/12 09:18:56;;;;;;;0.60;0.43;;;2.40;1.00;;;;;;6069585;23;20783;-77
2022/12/12 09:21:24;;;;;;;0.50;0.10;;;2.40;1.00;;;;;;6072307;23;20446;-76
2022/12/12 09:23:53;;;;;;;1.17;1.03;;;2.40;1.00;;;;;;6071169;23;20438;-77
2022/12/12 09:26:20;;;;;;;0.50;0.10;;;2.50;1.00;;;;;;6070019;23;20431;-77
2022/12/12 09:28:49;;;;;;;2.43;1.13;;;2.50;1.00;;;;;;6069832;23;20404;-76
2022/12/12 09:31:16;;;;;;;0.50;0.10;;;2.50;1.00;;;;;;6070492;23;20420;-77
2022/12/12 09:33:46;;;;;;;0.50;0.10;;;2.60;1.00;;;;;;6068941;23;20415;-77
2022/12/12 09:36:14;;;;;;;0.60;0.20;;;2.70;1.00;;;;;;6069599;23;20462;-77
2022/12/12 09:38:41;;;;;;;0.60;0.50;;;2.70;1.00;;;;;;6068629;23;20434;-77
2022/12/12 09:41:16;;;;;;;0.50;0.10;;;2.80;1.00;;;;;;6068148;23;21221;-77
2022/12/12 09:43:50;;;;;;;0.50;0.10;;;2.80;1.00;;;;;;6068876;23;20391;-77
2022/12/12 09:46:27;;;;;;;0.50;0.10;;;2.90;1.00;;;;;;6068876;23;20434;-77
2022/12/12 09:49:06;;;;;;;0.50;0.10;;;2.90;1.00;;;;;;6068683;23;20392;-77
2022/12/12 09:51:35;;;;;;;0.50;0.10;;;2.90;1.00;;;;;;6069271;23;20506;-77
2022/12/12 09:54:05;;;;;;;0.50;0.10;;;3.00;1.00;;;;;;6068936;23;20435;-77
2022/12/12 09:56:42;;;;;;;0.50;0.10;;;3.00;1.00;;;;;;6068288;23;20432;-77
2022/12/12 09:59:15;;;;;;;13.50;12.60;;;3.00;1.00;;;;;;6068452;23;20402;-77
2022/12/12 10:01:52;;;;;;;0.50;0.10;;;3.10;1.00;;;;;;6068539;23;20920;-77
2022/12/12 10:04:28;;;;;;;0.50;0.10;;;3.10;1.00;;;;;;6069844;23;20490;-77
2022/12/12 10:07:01;;;;;;;1.80;1.70;;;3.10;1.00;;;;;;6067828;23;20446;-77
2022/12/12 10:09:42;;;;;;;21.87;20.90;;;3.20;1.00;;;;;;6068842;23;20463;-77
2022/12/12 10:12:15;;;;;;;0.50;0.30;;;3.20;1.00;;;;;;6067727;23;20886;-77
2022/12/12 10:14:45;;;;;;;0.50;0.10;;;3.20;1.00;;;;;;6067719;23;20408;-76
2022/12/12 10:17:18;;;;;;;0.83;0.83;;;3.10;1.00;;;;;;6067842;23;20439;-76
2022/12/12 10:19:52;;;;;;;0.50;0.20;;;3.20;1.00;;;;;;6068384;23;20721;-76
2022/12/12 10:22:28;;;;;;;0.50;0.10;;;3.20;1.00;;;;;;6068243;23;20498;-77
2022/12/12 10:25:03;;;;;;;40.20;34.20;;;3.20;1.00;;;;;;6074544;23;20431;-75
2022/12/12 10:27:31;;;;;;;0.50;0.10;;;3.10;1.00;;;;;;6077485;23;20396;-76
2022/12/12 10:30:13;;;;;;;0.50;0.10;;;3.20;1.00;;;;;;6067891;23;21014;-77
2022/12/12 10:33:03;;;;;;;0.50;0.10;;;3.20;1.00;;;;;;6067953;23;20404;-77
2022/12/12 10:35:41;;;;;;;0.50;0.10;;;3.10;1.00;;;;;;6053405;23;20507;-77
2022/12/12 10:38:31;;;;;;;0.50;0.10;;;3.10;1.00;;;;;;6068189;23;20392;-77
2022/12/12 10:41:09;;;;;;;5.27;4.93;;;3.00;1.00;;;;;;6067919;23;20463;-77
2022/12/12 10:43:45;;;;;;;2.37;2.27;;;3.00;1.00;;;;;;6067159;23;20443;-75
2022/12/12 10:46:21;;;;;;;0.60;0.10;;;3.00;1.00;;;;;;6067999;23;20748;-76
2022/12/12 10:48:49;;;;;;;19.07;17.70;;;3.00;1.00;;;;;;6069252;23;20475;-76
2022/12/12 10:51:22;;;;;;;1.90;1.80;;;3.00;1.00;;;;;;6068594;23;20415;-76
2022/12/12 10:53:50;;;;;;;2.93;2.33;;;;;;;;;;6068573;23;20420;-77
2022/12/12 10:56:22;;;;;;;0.50;0.10;;;3.10;1.00;;;;;;6067828;23;20436;-77
2022/12/12 10:58:55;;;;;;;0.50;0.10;;;3.10;1.00;;;;;;6067898;23;20838;-77
2022/12/12 11:01:28;;;;;;;6.53;2.93;;;3.10;1.00;;;;;;6068160;23;20419;-77
2022/12/12 11:04:16;;;;;;;3.43;2.57;;;3.20;1.00;;;;;;6067732;23;20392;-76
2022/12/12 11:06:48;;;;;;;0.50;0.10;;;3.20;1.00;;;;;;6067791;23;20434;-78
2022/12/12 11:09:19;;;;;;;0.50;0.10;;;3.20;1.00;;;;;;6068831;23;20415;-78
2022/12/12 11:11:58;;;;;;;0.50;0.10;;;3.10;1.00;;;;;;6068284;23;20416;-77
2022/12/12 11:14:31;;;;;;;0.50;0.33;;;3.10;1.00;;;;;;6068287;23;20403;-77
2022/12/12 11:16:59;;;;;;;3.83;2.40;;;;;;;;;;6066861;23;20460;-78
2022/12/12 11:19:40;;;;;;;5.60;2.43;;;3.10;1.00;;;;;;6070764;23;20424;-78
2022/12/12 11:22:13;;;;;;;0.60;0.30;;;3.00;1.00;;;;;;6070050;23;20402;-77
2022/12/12 11:24:45;;;;;;;0.50;0.10;;;2.90;1.00;;;;;;6069694;23;20384;-75
2022/12/12 11:27:21;;;;;;;5.60;4.43;;;2.80;1.00;;;;;;6071034;23;20495;-77
2022/12/12 11:29:51;;;;;;;0.50;0.10;;;2.70;1.00;;;;;;6070035;23;20419;-77
2022/12/12 11:32:22;;;;;;;1.90;1.80;;;2.60;1.00;;;;;;6070711;23;20396;-77
2022/12/12 11:34:53;;;;;;;0.60;0.30;;;2.60;1.00;;;;;;6074039;23;20499;-74
2022/12/12 11:37:26;;;;;;;16.33;3.23;;;2.50;1.00;;;;;;6075232;23;20937;-75
2022/12/12 11:39:55;;;;;;;26.23;13.83;;;2.40;1.00;;;;;;6072938;23;20900;-75
2022/12/12 11:42:27;;;;;;;0.50;0.10;;;2.40;1.00;;;;;;6074978;23;20428;-77
2022/12/12 11:45:01;;;;;;;0.60;0.40;;;2.40;1.00;;;;;;6076061;23;20514;-76
2022/12/12 11:47:37;;;;;;;1.80;1.70;;;2.40;1.00;;;;;;6074890;23;20470;-77
2022/12/12 11:50:18;;;;;;;2.10;1.90;;;2.30;1.00;;;;;;6077971;23;20484;-76
2022/12/12 11:52:48;;;;;;;6.03;3.13;;;2.30;1.00;;;;;;6086618;23;20422;-77
2022/12/12 11:55:21;;;;;;;0.50;0.10;;;2.30;1.00;;;;;;6087928;23;20381;-79
2022/12/12 11:58:13;;;;;;;0.60;0.53;;;2.30;1.00;;;;;;6073721;23;20439;-76
2022/12/12 12:00:47;;;;;;;1.90;1.80;;;2.30;1.00;;;;;;6074442;23;20435;-77
2022/12/12 12:03:40;;;;;;;5.93;4.47;;;2.30;1.00;;;;;;6072037;23;20779;-78
2022/12/12 12:06:30;;;;;;;0.60;0.27;;;2.40;1.00;;;;;;6076775;23;20427;-77
2022/12/12 12:09:12;;;;;;;0.83;0.70;;;2.40;1.00;;;;;;6078011;23;20474;-78
2022/12/12 12:11:49;;;;;;;1.40;1.30;;;2.40;1.00;;;;;;6075665;23;20392;-76
2022/12/12 12:14:45;;;;;;;0.67;0.67;;;2.50;1.00;;;;;;6071908;23;20395;-77
2022/12/12 12:17:26;;;;;;;0.50;0.10;;;2.50;1.00;;;;;;6064387;23;20491;-76
2022/12/12 12:20:04;;;;;;;1.07;0.90;;;2.40;1.00;;;;;;6072404;23;20404;-77
2022/12/12 12:22:44;;;;;;;0.50;0.40;;;2.50;1.00;;;;;;6070701;23;20388;-77
2022/12/12 12:25:24;;;;;;;0.87;0.77;;;2.50;1.00;;;;;;6070670;23;20935;-78
2022/12/12 12:28:06;;;;;;;0.70;0.20;;;2.60;1.00;;;;;;6070065;23;20439;-77
2022/12/12 12:30:43;;;;;;;0.50;0.10;;;2.60;1.00;;;;;;6070661;23;20392;-78
2022/12/12 12:33:34;;;;;;;5.60;1.80;;;2.60;1.00;;;;;;6068815;23;20490;-77
2022/12/12 12:36:13;;;;;;;2.23;2.13;;;2.50;1.00;;;;;;6070348;23;20428;-78
2022/12/12 12:38:59;;;;;;;0.50;0.10;;;2.50;1.00;;;;;;6070461;23;20475;-78
2022/12/12 12:41:37;;;;;;;0.50;0.10;;;2.30;1.00;;;;;;6070314;23;20406;-77
2022/12/12 12:44:20;;;;;;;0.83;0.83;;;2.30;1.00;;;;;;6070552;23;20498;-77
2022/12/12 12:46:54;;;;;;;0.50;0.10;;;2.30;1.00;;;;;;6070155;23;20451;-78
2022/12/12 12:49:26;;;;;;;1.07;0.97;;;2.30;1.00;;;;;;6070587;23;20406;-78
2022/12/12 12:51:59;;;;;;;0.50;0.20;;;2.30;1.00;;;;;;6070273;23;20388;-78
2022/12/12 12:54:32;;;;;;;1.37;1.33;;;1.50;1.00;;;;;;6070506;23;20406;-78
2022/12/12 12:57:10;;;;;;;0.53;0.27;;;2.30;1.00;;;;;;6071739;23;20753;-77
2022/12/12 12:59:41;;;;;;;0.50;0.10;;;2.20;1.00;;;;;;6073510;23;20411;-77
2022/12/12 13:02:23;;;;;;;0.60;0.40;;;2.20;1.00;;;;;;6072552;23;20412;-76
2022/12/12 13:05:05;;;;;;;0.50;0.20;;;2.20;1.00;;;;;;6073234;23;20439;-75
2022/12/12 13:07:40;;;;;;;0.50;0.20;;;2.20;1.00;;;;;;6072532;23;20443;-77
2022/12/12 13:10:17;;;;;;;5.30;0.73;;;2.20;1.00;;;;;;6071400;23;20415;-77
2022/12/12 13:12:54;;;;;;;2.73;0.70;;;2.10;1.00;;;;;;6071338;23;20730;-76
2022/12/12 13:15:26;;;;;;;0.60;0.20;;;2.10;1.00;;;;;;6070928;23;20864;-77
2022/12/12 13:18:00;;;;;;;2.10;1.27;;;2.20;1.00;;;;;;6070105;23;20486;-78
2022/12/12 13:20:30;;;;;;;5.13;0.93;;;2.30;1.00;;;;;;6069924;23;20419;-78
2022/12/12 13:23:25;;;;;;;0.50;0.10;;;2.10;1.00;;;;;;6070197;23;20426;-78
2022/12/12 13:25:59;;;;;;;1.43;0.63;;;2.10;1.00;;;;;;6070561;23;20434;-77
2022/12/12 13:28:33;;;;;;;0.50;0.10;;;2.00;1.00;;;;;;6070756;23;20719;-77
2022/12/12 13:31:17;;;;;;;0.50;0.10;;;2.00;1.00;;;;;;6070610;23;20407;-78
2022/12/12 13:33:49;;;;;;;0.50;0.10;;;2.10;1.00;;;;;;6071113;23;20419;-78
2022/12/12 13:36:21;;;;;;;0.50;0.10;;;2.20;1.00;;;;;;6070239;23;20423;-78
2022/12/12 13:38:58;;;;;;;0.50;0.10;;;2.20;1.00;;;;;;6070637;23;20419;-77
2022/12/12 13:41:55;;;;;;;0.50;0.10;;;2.20;1.00;;;;;;6066765;23;20735;-78
2022/12/12 13:44:36;;;;;;;0.50;0.17;;;2.20;1.00;;;;;;6071367;23;20443;-77
2022/12/12 13:47:10;;;;;;;0.50;0.10;;;2.20;1.00;;;;;;6072621;23;20435;-77
2022/12/12 13:49:47;;;;;;;0.50;0.10;;;2.20;1.00;;;;;;6072132;23;20425;-76
2022/12/12 13:52:27;;;;;;;0.50;0.10;;;2.30;1.00;;;;;;6072594;23;20386;-77
2022/12/12 13:55:20;;;;;;;5.03;2.57;;;2.30;1.00;;;;;;6072840;23;20396;-78
2022/12/12 13:58:19;;;;;;;0.50;0.13;;;2.20;1.00;;;;;;6074447;23;20480;-77
2022/12/12 14:01:08;;;;;;;0.50;0.10;;;2.10;1.00;;;;;;6073125;23;20410;-78
2022/12/12 14:03:38;;;;;;;3.90;3.70;;;2.20;1.00;;;;;;6072841;23;20821;-76
2022/12/12 14:06:11;;;;;;;2.57;2.00;;;2.30;1.00;;;;;;6074074;23;20447;-76
2022/12/12 14:08:48;;;;;;;0.60;0.50;;;2.30;1.00;;;;;;6077979;23;20439;-77
2022/12/12 14:11:31;;;;;;;0.90;0.73;;;2.30;1.00;;;;;;6078484;23;20427;-77
2022/12/12 14:14:15;;;;;;;2.20;1.33;;;2.20;1.00;;;;;;6074208;23;20423;-78
2022/12/12 14:16:52;;;;;;;0.50;0.10;;;2.20;1.00;;;;;;6075583;23;20454;-77
2022/12/12 14:19:31;;;;;;;0.60;0.43;;;2.20;1.00;;;;;;6071829;23;20545;-78
2022/12/12 14:21:59;;;;;;;0.50;0.10;;;2.30;1.00;;;;;;6080034;23;20409;-80
2022/12/12 14:25:02;;;;;;;0.97;0.60;;;3.50;1.00;;;;;;6080888;23;20962;-78
2022/12/12 14:28:12;;;;;;;0.50;0.30;;;2.30;1.00;;;;;;6081858;23;20499;-77
2022/12/12 14:31:13;;;;;;;0.50;0.20;;;2.30;1.00;;;;;;6075376;23;20422;-77
2022/12/12 14:34:07;;;;;;;0.50;0.10;;;2.30;1.00;;;;;;6079686;23;20427;-78
2022/12/12 14:37:03;;;;;;;2.87;2.73;;;2.30;1.00;;;;;;6080682;23;20487;-77
2022/12/12 14:39:59;;;;;;;0.50;0.10;;;2.30;1.00;;;;;;6074548;23;20408;-76
2022/12/12 14:42:37;;;;;;;7.00;2.07;;;2.20;1.00;;;;;;6074810;23;20479;-76
2022/12/12 14:45:28;;;;;;;1.70;1.60;;;2.20;1.00;;;;;;6074561;23;20447;-77
2022/12/12 14:48:15;;;;;;;0.50;0.10;;;2.30;1.00;;;;;;6077903;23;20412;-77
2022/12/12 14:51:05;;;;;;;0.50;0.10;;;2.30;1.00;;;;;;6075550;23;20415;-75
2022/12/12 14:53:43;;;;;;;0.50;0.10;;;2.30;1.00;;;;;;6075739;23;20411;-77
2022/12/12 14:56:14;;;;;;;0.50;0.10;;;2.30;1.00;;;;;;6077404;23;20431;-76
2022/12/12 14:58:45;;;;;;;0.50;0.10;;;2.30;1.00;;;;;;6089655;23;20430;-77
2022/12/12 15:01:18;;;;;;;3.47;2.67;;;2.30;1.00;;;;;;6090257;23;20407;-78
2022/12/12 15:03:49;;;;;;;0.50;0.20;;;2.30;1.00;;;;;;6091095;23;20424;-78
2022/12/12 15:06:27;;;;;;;0.50;0.10;;;2.30;1.00;;;;;;6090952;23;20404;-77
2022/12/12 15:08:57;;;;;;;0.60;0.50;;;1.60;1.00;;;;;;6089553;23;20432;-79
2022/12/12 15:11:30;;;;;;;6.43;4.03;;;2.30;1.00;;;;;;6089606;23;20403;-77
2022/12/12 15:13:59;;;;;;;0.50;0.10;;;2.30;1.00;;;;;;6083689;23;20483;-79
2022/12/12 15:16:33;;;;;;;0.50;0.30;;;2.30;1.00;;;;;;6089560;23;20432;-78
2022/12/12 15:19:02;;;;;;;0.63;0.63;;;2.30;1.00;;;;;;6088499;23;20396;-76
2022/12/12 15:21:33;;;;;;;2.13;0.93;;;2.30;1.00;;;;;;6084981;23;20419;-79
2022/12/12 15:24:02;;;;;;;1.77;1.67;;;;;;;;;;6077072;23;20439;-78
2022/12/12 15:26:30;;;;;;;0.50;0.10;;;2.30;1.00;;;;;;6075716;23;20475;-79
2022/12/12 15:28:58;;;;;;;0.50;0.30;;;2.20;1.00;;;;;;6075400;23;20404;-80
2022/12/12 15:31:27;;;;;;;0.50;0.17;;;2.20;1.00;;;;;;6074928;23;20426;-80
2022/12/12 15:33:55;;;;;;;0.50;0.10;;;2.20;1.00;;;;;;6074336;23;20451;-77
2022/12/12 15:36:28;;;;;;;0.50;0.10;;;2.20;1.00;;;;;;6073657;23;20464;-78
2022/12/12 15:39:14;;;;;;;0.50;0.10;;;2.30;1.00;;;;;;6076781;23;20403;-78
2022/12/12 15:41:44;;;;;;;0.50;0.10;;;2.20;1.00;;;;;;6076536;23;20411;-78
2022/12/12 15:44:18;;;;;;;0.50;0.10;;;2.20;1.00;;;;;;6077128;23;20403;-78
2022/12/12 15:46:49;;;;;;;0.50;0.10;;;2.10;1.00;;;;;;6075822;23;20436;-79
2022/12/12 15:49:47;;;;;;;0.60;0.20;;;2.10;1.00;;;;;;6075339;23;20412;-80
2022/12/12 15:52:21;;;;;;;0.50;0.10;;;2.10;1.00;;;;;;6042131;23;20415;-79
2022/12/12 15:54:53;;;;;;;0.50;0.10;;;2.00;1.00;;;;;;6076553;23;20400;-80
2022/12/12 15:57:24;;;;;;;0.50;0.10;;;2.00;1.00;;;;;;6076844;23;20776;-79
2022/12/12 15:59:55;;;;;;;0.50;0.17;;;2.00;1.00;;;;;;6076672;23;20900;-79
2022/12/12 16:02:26;;;;;;;0.50;0.10;;;2.30;1.00;;;;;;6074761;23;20773;-78
2022/12/12 16:04:56;;;;;;;0.50;0.20;;;1.90;1.00;;;;;;6073864;23;20444;-79
2022/12/12 16:07:24;;;;;;;0.50;0.10;;;1.90;1.00;;;;;;6074460;23;20814;-77
2022/12/12 16:10:05;;;;;;;0.50;0.20;;;2.00;1.00;;;;;;6072921;23;20400;-77
2022/12/12 16:12:55;;;;;;;0.50;0.10;;;2.00;1.00;;;;;;6073970;23;20458;-78
2022/12/12 16:15:31;;;;;;;2.50;2.40;;;1.90;1.00;;;;;;6076057;23;20729;-78
2022/12/12 16:18:05;;;;;;;0.50;0.10;;;1.90;1.00;;;;;;6076179;23;20411;-78
2022/12/12 16:20:34;;;;;;;0.60;0.47;;;1.90;1.00;;;;;;6076237;23;20408;-78
2022/12/12 16:23:11;;;;;;;0.50;0.10;;;1.70;1.00;;;;;;6074510;23;20451;-80
2022/12/12 16:25:40;;;;;;;0.50;0.10;;;1.80;1.00;;;;;;6074663;23;20514;-80
2022/12/12 16:28:21;;;;;;;0.50;0.10;;;1.80;1.00;;;;;;6078992;23;20426;-80
2022/12/12 16:30:56;;;;;;;0.50;0.10;;;1.70;1.00;;;;;;6078652;23;20416;-81
2022/12/12 16:33:31;;;;;;;1.53;1.07;;;1.70;1.00;;;;;;6075359;23;20419;-80
2022/12/12 16:36:00;;;;;;;0.50;0.10;;;1.60;1.00;;;;;;6076225;23;20419;-80
2022/12/12 16:38:29;;;;;;;0.50;0.37;;;1.60;1.00;;;;;;6075060;23;20742;-80
2022/12/12 16:41:01;;;;;;;8.20;7.70;;;1.60;1.00;;;;;;6076367;23;20411;-79
2022/12/12 16:43:29;;;;;;;0.70;0.70;;;1.50;1.00;;;;;;6081540;23;20423;-80
2022/12/12 16:45:59;;;;;;;0.50;0.10;;;1.60;1.00;;;;;;6077258;23;20455;-76
2022/12/12 16:48:32;;;;;;;1.27;1.17;;;1.60;1.00;;;;;;6089439;23;20441;-78
2022/12/12 16:51:03;;;;;;;0.50;0.10;;;1.60;1.00;;;;;;6087514;23;20440;-77
2022/12/12 16:53:31;;;;;;;0.50;0.10;;;1.60;1.00;;;;;;6075686;23;20416;-79
2022/12/12 16:56:01;;;;;;;0.50;0.20;;;1.50;1.00;;;;;;6074734;23;20435;-79
2022/12/12 16:58:29;;;;;;;1.07;1.03;;;1.60;1.00;;;;;;6075111;23;20399;-80
2022/12/12 17:00:58;;;;;;;13.23;2.73;;;1.30;1.00;;;;;;6075625;23;20408;-80
2022/12/12 17:03:28;;;;;;;0.50;0.10;;;1.50;1.00;;;;;;6078223;23;20431;-79
2022/12/12 17:05:56;;;;;;;2.70;0.60;;;1.40;1.00;;;;;;6074820;23;20448;-77
2022/12/12 17:08:26;;;;;;;1.07;1.07;;;1.50;1.00;;;;;;6075250;23;20522;-78
2022/12/12 17:10:54;;;;;;;1.53;1.43;;;1.40;1.00;;;;;;6084573;23;20395;-79
2022/12/12 17:13:42;;;;;;;3.60;3.40;;;1.30;1.00;;;;;;6090929;23;20408;-75
2022/12/12 17:16:10;;;;;;;0.50;0.10;;;1.30;1.00;;;;;;6084015;23;20451;-78
2022/12/12 17:18:37;;;;;;;0.50;0.30;;;1.30;1.00;;;;;;6079024;23;20451;-75
2022/12/12 17:21:06;;;;;;;0.50;0.10;;;1.30;1.00;;;;;;6081994;23;20449;-79
2022/12/12 17:23:34;;;;;;;0.50;0.10;;;1.40;1.00;;;;;;6072123;23;20411;-77
2022/12/12 17:26:02;;;;;;;0.50;0.10;;;1.30;1.00;;;;;;6074447;23;20451;-79
2022/12/12 17:28:33;;;;;;;0.50;0.10;;;-0.50;1.00;;;;;;6077296;23;20775;-78
2022/12/12 17:31:06;;;;;;;0.50;0.10;;;1.40;1.00;;;;;;6074484;23;20420;-79
2022/12/12 17:33:34;;;;;;;0.50;0.10;;;1.30;1.00;;;;;;6073230;23;20432;-79
2022/12/12 17:36:17;;;;;;;0.50;0.10;;;;;;;;;;6069291;23;20416;-78
2022/12/12 17:38:45;;;;;;;0.60;0.30;;;1.30;1.00;;;;;;6069999;23;20739;-79
2022/12/12 17:41:13;;;;;;;1.77;1.40;;;1.30;1.00;;;;;;6071509;23;20416;-79